sensor_id;sensor_type;location;lat;lon;timestamp;P1;durP1;ratioP1;P2;durP2;ratioP2
72369;SDS011;60343;-32.030;115.880;2023-07-24T00:00:47;2.95;;;0.50;;
72369;SDS011;60343;-32.030;115.880;2023-07-24T00:03:22;2.67;;;0.30;;
72369;SDS011;60343;-32.030;115.880;2023-07-24T00:05:58;4.15;;;0.38;;
72369;SDS011;60343;-32.030;115.880;2023-07-24T00:08:34;5.97;;;0.60;;
72369;SDS011;60343;-32.030;115.880;2023-07-24T00:11:09;4.60;;;0.73;;
72369;SDS011;60343;-32.030;115.880;2023-07-24T00:13:50;3.40;;;0.60;;
72369;SDS011;60343;-32.030;115.880;2023-07-24T00:16:26;5.78;;;0.63;;
72369;SDS011;60343;-32.030;115.880;2023-07-24T00:19:01;3.63;;;0.60;;
72369;SDS011;60343;-32.030;115.880;2023-07-24T00:21:36;2.30;;;0.40;;
72369;SDS011;60343;-32.030;115.880;2023-07-24T00:24:12;4.80;;;0.43;;
72369;SDS011;60343;-32.030;115.880;2023-07-24T00:26:47;3.83;;;0.50;;
72369;SDS011;60343;-32.030;115.880;2023-07-24T00:29:29;4.28;;;0.40;;
72369;SDS011;60343;-32.030;115.880;2023-07-24T00:32:04;6.07;;;0.50;;
72369;SDS011;60343;-32.030;115.880;2023-07-24T00:34:40;8.98;;;0.60;;
72369;SDS011;60343;-32.030;115.880;2023-07-24T00:37:16;1.90;;;0.40;;
72369;SDS011;60343;-32.030;115.880;2023-07-24T00:39:51;4.90;;;0.52;;
72369;SDS011;60343;-32.030;115.880;2023-07-24T00:42:27;4.68;;;0.40;;
72369;SDS011;60343;-32.030;115.880;2023-07-24T00:45:08;3.15;;;0.30;;
72369;SDS011;60343;-32.030;115.880;2023-07-24T00:47:44;3.20;;;0.38;;
72369;SDS011;60343;-32.030;115.880;2023-07-24T00:50:19;2.58;;;0.40;;
72369;SDS011;60343;-32.030;115.880;2023-07-24T00:52:55;5.30;;;0.50;;
72369;SDS011;60343;-32.030;115.880;2023-07-24T00:55:31;2.88;;;0.50;;
72369;SDS011;60343;-32.030;115.880;2023-07-24T00:58:07;6.05;;;0.50;;
72369;SDS011;60343;-32.030;115.880;2023-07-24T01:00:49;4.88;;;0.52;;
72369;SDS011;60343;-32.030;115.880;2023-07-24T01:03:26;1.13;;;0.40;;
72369;SDS011;60343;-32.030;115.880;2023-07-24T01:06:07;6.60;;;0.80;;
72369;SDS011;60343;-32.030;115.880;2023-07-24T01:08:42;4.15;;;0.73;;
72369;SDS011;60343;-32.030;115.880;2023-07-24T01:11:18;4.55;;;0.38;;
72369;SDS011;60343;-32.030;115.880;2023-07-24T01:13:58;3.53;;;0.55;;
72369;SDS011;60343;-32.030;115.880;2023-07-24T01:16:49;5.70;;;0.65;;
72369;SDS011;60343;-32.030;115.880;2023-07-24T01:22:12;2.53;;;0.40;;
72369;SDS011;60343;-32.030;115.880;2023-07-24T01:25:01;4.03;;;0.38;;
72369;SDS011;60343;-32.030;115.880;2023-07-24T01:27:49;3.00;;;0.43;;
72369;SDS011;60343;-32.030;115.880;2023-07-24T01:30:24;6.10;;;0.50;;
72369;SDS011;60343;-32.030;115.880;2023-07-24T01:33:00;5.90;;;0.60;;
72369;SDS011;60343;-32.030;115.880;2023-07-24T01:35:35;3.78;;;0.50;;
72369;SDS011;60343;-32.030;115.880;2023-07-24T01:38:12;2.67;;;0.50;;
72369;SDS011;60343;-32.030;115.880;2023-07-24T01:40:48;9.13;;;0.60;;
72369;SDS011;60343;-32.030;115.880;2023-07-24T01:43:30;4.13;;;0.70;;
72369;SDS011;60343;-32.030;115.880;2023-07-24T01:46:06;3.25;;;0.50;;
72369;SDS011;60343;-32.030;115.880;2023-07-24T01:48:41;2.20;;;0.40;;
72369;SDS011;60343;-32.030;115.880;2023-07-24T01:51:18;6.53;;;0.70;;
72369;SDS011;60343;-32.030;115.880;2023-07-24T01:53:54;2.45;;;0.30;;
72369;SDS011;60343;-32.030;115.880;2023-07-24T01:56:29;5.68;;;0.80;;
72369;SDS011;60343;-32.030;115.880;2023-07-24T01:59:11;5.85;;;0.70;;
72369;SDS011;60343;-32.030;115.880;2023-07-24T02:01:47;6.05;;;0.63;;
72369;SDS011;60343;-32.030;115.880;2023-07-24T02:04:22;6.82;;;0.90;;
72369;SDS011;60343;-32.030;115.880;2023-07-24T02:06:57;3.80;;;0.35;;
72369;SDS011;60343;-32.030;115.880;2023-07-24T02:09:33;5.22;;;0.70;;
72369;SDS011;60343;-32.030;115.880;2023-07-24T02:12:08;2.58;;;0.32;;
72369;SDS011;60343;-32.030;115.880;2023-07-24T02:14:49;9.07;;;0.60;;
72369;SDS011;60343;-32.030;115.880;2023-07-24T02:17:26;2.83;;;0.70;;
72369;SDS011;60343;-32.030;115.880;2023-07-24T02:20:01;6.53;;;0.60;;
72369;SDS011;60343;-32.030;115.880;2023-07-24T02:22:37;4.25;;;0.52;;
72369;SDS011;60343;-32.030;115.880;2023-07-24T02:25:12;3.22;;;0.40;;
72369;SDS011;60343;-32.030;115.880;2023-07-24T02:27:48;4.05;;;0.50;;
72369;SDS011;60343;-32.030;115.880;2023-07-24T02:30:29;3.03;;;0.40;;
72369;SDS011;60343;-32.030;115.880;2023-07-24T02:33:04;4.32;;;0.50;;
72369;SDS011;60343;-32.030;115.880;2023-07-24T02:35:40;6.57;;;0.65;;
72369;SDS011;60343;-32.030;115.880;2023-07-24T02:38:15;3.42;;;0.50;;
72369;SDS011;60343;-32.030;115.880;2023-07-24T02:40:51;4.03;;;0.57;;
72369;SDS011;60343;-32.030;115.880;2023-07-24T02:43:27;4.18;;;0.35;;
72369;SDS011;60343;-32.030;115.880;2023-07-24T02:46:08;5.75;;;0.60;;
72369;SDS011;60343;-32.030;115.880;2023-07-24T02:48:43;6.78;;;0.50;;
72369;SDS011;60343;-32.030;115.880;2023-07-24T02:51:18;3.50;;;0.70;;
72369;SDS011;60343;-32.030;115.880;2023-07-24T02:53:54;3.72;;;0.57;;
72369;SDS011;60343;-32.030;115.880;2023-07-24T02:56:30;2.85;;;0.40;;
72369;SDS011;60343;-32.030;115.880;2023-07-24T02:59:18;6.03;;;0.60;;
72369;SDS011;60343;-32.030;115.880;2023-07-24T03:01:59;6.32;;;0.50;;
72369;SDS011;60343;-32.030;115.880;2023-07-24T03:04:35;2.85;;;0.40;;
72369;SDS011;60343;-32.030;115.880;2023-07-24T03:07:10;5.32;;;0.60;;
72369;SDS011;60343;-32.030;115.880;2023-07-24T03:09:46;4.93;;;0.40;;
72369;SDS011;60343;-32.030;115.880;2023-07-24T03:12:24;9.57;;;0.75;;
72369;SDS011;60343;-32.030;115.880;2023-07-24T03:15:16;4.00;;;0.73;;
72369;SDS011;60343;-32.030;115.880;2023-07-24T03:17:57;7.10;;;0.55;;
72369;SDS011;60343;-32.030;115.880;2023-07-24T03:20:33;5.28;;;0.40;;
72369;SDS011;60343;-32.030;115.880;2023-07-24T03:23:08;4.45;;;0.50;;
72369;SDS011;60343;-32.030;115.880;2023-07-24T03:28:29;5.22;;;0.60;;
72369;SDS011;60343;-32.030;115.880;2023-07-24T03:31:04;4.18;;;0.60;;
72369;SDS011;60343;-32.030;115.880;2023-07-24T03:33:45;2.95;;;0.60;;
72369;SDS011;60343;-32.030;115.880;2023-07-24T03:36:21;5.00;;;0.68;;
72369;SDS011;60343;-32.030;115.880;2023-07-24T03:38:56;6.50;;;0.80;;
72369;SDS011;60343;-32.030;115.880;2023-07-24T03:41:31;2.38;;;0.45;;
72369;SDS011;60343;-32.030;115.880;2023-07-24T03:44:07;5.38;;;0.57;;
72369;SDS011;60343;-32.030;115.880;2023-07-24T03:46:42;4.65;;;0.95;;
72369;SDS011;60343;-32.030;115.880;2023-07-24T03:49:23;4.68;;;0.80;;
72369;SDS011;60343;-32.030;115.880;2023-07-24T03:51:59;4.45;;;0.95;;
72369;SDS011;60343;-32.030;115.880;2023-07-24T03:54:34;4.38;;;0.70;;
72369;SDS011;60343;-32.030;115.880;2023-07-24T03:57:10;2.63;;;0.70;;
72369;SDS011;60343;-32.030;115.880;2023-07-24T03:59:45;4.80;;;1.10;;
72369;SDS011;60343;-32.030;115.880;2023-07-24T04:02:20;6.22;;;1.00;;
72369;SDS011;60343;-32.030;115.880;2023-07-24T04:05:02;5.68;;;0.77;;
72369;SDS011;60343;-32.030;115.880;2023-07-24T04:07:38;5.47;;;0.88;;
72369;SDS011;60343;-32.030;115.880;2023-07-24T04:10:13;4.88;;;0.70;;
72369;SDS011;60343;-32.030;115.880;2023-07-24T04:12:49;3.90;;;0.50;;
72369;SDS011;60343;-32.030;115.880;2023-07-24T04:15:24;4.32;;;0.50;;
72369;SDS011;60343;-32.030;115.880;2023-07-24T04:18:00;5.53;;;1.00;;
72369;SDS011;60343;-32.030;115.880;2023-07-24T04:20:41;4.32;;;0.63;;
72369;SDS011;60343;-32.030;115.880;2023-07-24T04:23:16;3.45;;;0.43;;
72369;SDS011;60343;-32.030;115.880;2023-07-24T04:25:51;4.47;;;0.60;;
72369;SDS011;60343;-32.030;115.880;2023-07-24T04:28:27;5.32;;;0.70;;
72369;SDS011;60343;-32.030;115.880;2023-07-24T04:31:02;3.97;;;0.73;;
72369;SDS011;60343;-32.030;115.880;2023-07-24T04:33:37;2.75;;;0.68;;
72369;SDS011;60343;-32.030;115.880;2023-07-24T04:36:18;2.97;;;0.52;;
72369;SDS011;60343;-32.030;115.880;2023-07-24T04:38:54;3.42;;;0.50;;
72369;SDS011;60343;-32.030;115.880;2023-07-24T04:41:29;3.80;;;0.63;;
72369;SDS011;60343;-32.030;115.880;2023-07-24T04:44:05;6.75;;;0.80;;
72369;SDS011;60343;-32.030;115.880;2023-07-24T04:46:40;4.68;;;0.90;;
72369;SDS011;60343;-32.030;115.880;2023-07-24T04:49:16;3.95;;;0.80;;
72369;SDS011;60343;-32.030;115.880;2023-07-24T04:51:58;5.13;;;1.20;;
72369;SDS011;60343;-32.030;115.880;2023-07-24T04:54:33;4.60;;;0.98;;
72369;SDS011;60343;-32.030;115.880;2023-07-24T04:57:08;6.60;;;1.00;;
72369;SDS011;60343;-32.030;115.880;2023-07-24T04:59:44;8.80;;;1.73;;
72369;SDS011;60343;-32.030;115.880;2023-07-24T05:02:19;4.47;;;0.90;;
72369;SDS011;60343;-32.030;115.880;2023-07-24T05:04:55;9.05;;;1.23;;
72369;SDS011;60343;-32.030;115.880;2023-07-24T05:07:36;6.50;;;1.65;;
72369;SDS011;60343;-32.030;115.880;2023-07-24T05:10:11;6.72;;;2.25;;
72369;SDS011;60343;-32.030;115.880;2023-07-24T05:12:47;5.53;;;1.60;;
72369;SDS011;60343;-32.030;115.880;2023-07-24T05:15:22;7.45;;;1.55;;
72369;SDS011;60343;-32.030;115.880;2023-07-24T05:17:58;5.00;;;1.50;;
72369;SDS011;60343;-32.030;115.880;2023-07-24T05:20:33;4.13;;;1.00;;
72369;SDS011;60343;-32.030;115.880;2023-07-24T05:23:15;3.65;;;0.80;;
72369;SDS011;60343;-32.030;115.880;2023-07-24T05:25:56;4.63;;;0.80;;
72369;SDS011;60343;-32.030;115.880;2023-07-24T05:28:32;5.82;;;0.60;;
72369;SDS011;60343;-32.030;115.880;2023-07-24T05:31:08;3.05;;;0.70;;
72369;SDS011;60343;-32.030;115.880;2023-07-24T05:33:43;4.60;;;1.00;;
72369;SDS011;60343;-32.030;115.880;2023-07-24T05:36:24;6.43;;;0.63;;
72369;SDS011;60343;-32.030;115.880;2023-07-24T05:39:06;5.80;;;0.82;;
72369;SDS011;60343;-32.030;115.880;2023-07-24T05:41:41;3.30;;;0.80;;
72369;SDS011;60343;-32.030;115.880;2023-07-24T05:44:17;3.72;;;0.47;;
72369;SDS011;60343;-32.030;115.880;2023-07-24T05:46:52;5.18;;;0.70;;
72369;SDS011;60343;-32.030;115.880;2023-07-24T05:49:27;4.70;;;0.47;;
72369;SDS011;60343;-32.030;115.880;2023-07-24T05:52:03;4.20;;;0.85;;
72369;SDS011;60343;-32.030;115.880;2023-07-24T05:54:44;4.38;;;0.80;;
72369;SDS011;60343;-32.030;115.880;2023-07-24T05:57:20;3.10;;;0.60;;
72369;SDS011;60343;-32.030;115.880;2023-07-24T05:59:55;6.07;;;0.75;;
72369;SDS011;60343;-32.030;115.880;2023-07-24T06:02:31;4.47;;;0.80;;
72369;SDS011;60343;-32.030;115.880;2023-07-24T06:05:06;3.95;;;0.52;;
72369;SDS011;60343;-32.030;115.880;2023-07-24T06:07:42;4.75;;;0.80;;
72369;SDS011;60343;-32.030;115.880;2023-07-24T06:10:23;7.18;;;1.00;;
72369;SDS011;60343;-32.030;115.880;2023-07-24T06:12:59;5.00;;;0.80;;
72369;SDS011;60343;-32.030;115.880;2023-07-24T06:15:34;6.75;;;0.90;;
72369;SDS011;60343;-32.030;115.880;2023-07-24T06:18:10;2.53;;;0.47;;
72369;SDS011;60343;-32.030;115.880;2023-07-24T06:20:52;5.97;;;1.02;;
72369;SDS011;60343;-32.030;115.880;2023-07-24T06:23:28;4.82;;;1.10;;
72369;SDS011;60343;-32.030;115.880;2023-07-24T06:26:09;6.60;;;1.05;;
72369;SDS011;60343;-32.030;115.880;2023-07-24T06:28:44;5.10;;;1.08;;
72369;SDS011;60343;-32.030;115.880;2023-07-24T06:31:20;7.43;;;1.15;;
72369;SDS011;60343;-32.030;115.880;2023-07-24T06:33:55;5.00;;;1.38;;
72369;SDS011;60343;-32.030;115.880;2023-07-24T06:36:31;8.82;;;3.00;;
72369;SDS011;60343;-32.030;115.880;2023-07-24T06:39:06;7.95;;;2.78;;
72369;SDS011;60343;-32.030;115.880;2023-07-24T06:41:47;8.90;;;2.90;;
72369;SDS011;60343;-32.030;115.880;2023-07-24T06:44:24;5.93;;;2.28;;
72369;SDS011;60343;-32.030;115.880;2023-07-24T06:47:00;7.80;;;1.65;;
72369;SDS011;60343;-32.030;115.880;2023-07-24T06:49:35;5.50;;;1.60;;
72369;SDS011;60343;-32.030;115.880;2023-07-24T06:52:11;4.82;;;1.50;;
72369;SDS011;60343;-32.030;115.880;2023-07-24T06:54:46;6.35;;;1.70;;
72369;SDS011;60343;-32.030;115.880;2023-07-24T06:57:27;6.72;;;2.53;;
72369;SDS011;60343;-32.030;115.880;2023-07-24T07:00:03;8.88;;;2.75;;
72369;SDS011;60343;-32.030;115.880;2023-07-24T07:02:39;7.60;;;2.50;;
72369;SDS011;60343;-32.030;115.880;2023-07-24T07:05:14;6.28;;;1.92;;
72369;SDS011;60343;-32.030;115.880;2023-07-24T07:07:49;4.28;;;1.20;;
72369;SDS011;60343;-32.030;115.880;2023-07-24T07:10:25;7.70;;;1.42;;
72369;SDS011;60343;-32.030;115.880;2023-07-24T07:13:06;5.78;;;1.27;;
72369;SDS011;60343;-32.030;115.880;2023-07-24T07:15:42;6.35;;;0.90;;
72369;SDS011;60343;-32.030;115.880;2023-07-24T07:18:17;5.38;;;1.30;;
72369;SDS011;60343;-32.030;115.880;2023-07-24T07:20:53;6.93;;;1.70;;
72369;SDS011;60343;-32.030;115.880;2023-07-24T07:23:28;7.80;;;2.13;;
72369;SDS011;60343;-32.030;115.880;2023-07-24T07:26:03;11.13;;;2.72;;
72369;SDS011;60343;-32.030;115.880;2023-07-24T07:28:45;7.75;;;3.20;;
72369;SDS011;60343;-32.030;115.880;2023-07-24T07:31:20;10.98;;;3.10;;
72369;SDS011;60343;-32.030;115.880;2023-07-24T07:33:56;7.85;;;2.40;;
72369;SDS011;60343;-32.030;115.880;2023-07-24T07:36:31;6.28;;;2.50;;
72369;SDS011;60343;-32.030;115.880;2023-07-24T07:39:06;8.13;;;2.25;;
72369;SDS011;60343;-32.030;115.880;2023-07-24T07:41:42;6.13;;;1.63;;
72369;SDS011;60343;-32.030;115.880;2023-07-24T07:44:23;4.05;;;1.08;;
72369;SDS011;60343;-32.030;115.880;2023-07-24T07:46:58;5.22;;;1.38;;
72369;SDS011;60343;-32.030;115.880;2023-07-24T07:49:33;5.57;;;1.77;;
72369;SDS011;60343;-32.030;115.880;2023-07-24T07:52:09;7.55;;;1.80;;
72369;SDS011;60343;-32.030;115.880;2023-07-24T07:54:46;4.90;;;1.20;;
72369;SDS011;60343;-32.030;115.880;2023-07-24T07:57:22;5.88;;;1.30;;
72369;SDS011;60343;-32.030;115.880;2023-07-24T08:00:04;3.65;;;0.75;;
72369;SDS011;60343;-32.030;115.880;2023-07-24T08:02:40;4.10;;;0.80;;
72369;SDS011;60343;-32.030;115.880;2023-07-24T08:05:15;4.75;;;0.70;;
72369;SDS011;60343;-32.030;115.880;2023-07-24T08:07:51;4.43;;;0.90;;
72369;SDS011;60343;-32.030;115.880;2023-07-24T08:10:26;3.05;;;0.65;;
72369;SDS011;60343;-32.030;115.880;2023-07-24T08:13:02;2.83;;;0.52;;
72369;SDS011;60343;-32.030;115.880;2023-07-24T08:15:43;5.40;;;0.80;;
72369;SDS011;60343;-32.030;115.880;2023-07-24T08:18:18;3.95;;;0.65;;
72369;SDS011;60343;-32.030;115.880;2023-07-24T08:20:53;4.78;;;0.80;;
72369;SDS011;60343;-32.030;115.880;2023-07-24T08:23:29;5.38;;;0.60;;
72369;SDS011;60343;-32.030;115.880;2023-07-24T08:26:05;6.03;;;0.80;;
72369;SDS011;60343;-32.030;115.880;2023-07-24T08:28:40;3.85;;;0.80;;
72369;SDS011;60343;-32.030;115.880;2023-07-24T08:31:21;2.92;;;0.47;;
72369;SDS011;60343;-32.030;115.880;2023-07-24T08:33:57;6.30;;;0.55;;
72369;SDS011;60343;-32.030;115.880;2023-07-24T08:36:32;2.92;;;0.52;;
72369;SDS011;60343;-32.030;115.880;2023-07-24T08:39:07;3.05;;;0.50;;
72369;SDS011;60343;-32.030;115.880;2023-07-24T08:41:43;6.70;;;0.93;;
72369;SDS011;60343;-32.030;115.880;2023-07-24T08:44:19;4.05;;;0.90;;
72369;SDS011;60343;-32.030;115.880;2023-07-24T08:47:03;5.20;;;0.80;;
72369;SDS011;60343;-32.030;115.880;2023-07-24T08:49:40;3.13;;;0.63;;
72369;SDS011;60343;-32.030;115.880;2023-07-24T08:52:17;7.05;;;0.70;;
72369;SDS011;60343;-32.030;115.880;2023-07-24T08:54:52;5.45;;;1.20;;
72369;SDS011;60343;-32.030;115.880;2023-07-24T08:57:30;3.80;;;0.82;;
72369;SDS011;60343;-32.030;115.880;2023-07-24T09:00:07;8.43;;;1.25;;
72369;SDS011;60343;-32.030;115.880;2023-07-24T09:02:48;6.18;;;0.85;;
72369;SDS011;60343;-32.030;115.880;2023-07-24T09:05:24;4.88;;;0.90;;
72369;SDS011;60343;-32.030;115.880;2023-07-24T09:07:59;3.90;;;0.60;;
72369;SDS011;60343;-32.030;115.880;2023-07-24T09:10:34;5.97;;;0.70;;
72369;SDS011;60343;-32.030;115.880;2023-07-24T09:13:12;4.15;;;0.60;;
72369;SDS011;60343;-32.030;115.880;2023-07-24T09:15:47;3.60;;;0.60;;
72369;SDS011;60343;-32.030;115.880;2023-07-24T09:18:38;5.10;;;0.73;;
72369;SDS011;60343;-32.030;115.880;2023-07-24T09:21:13;3.78;;;0.60;;
72369;SDS011;60343;-32.030;115.880;2023-07-24T09:23:48;5.95;;;0.85;;
72369;SDS011;60343;-32.030;115.880;2023-07-24T09:26:24;6.68;;;0.80;;
72369;SDS011;60343;-32.030;115.880;2023-07-24T09:29:00;4.85;;;1.00;;
72369;SDS011;60343;-32.030;115.880;2023-07-24T09:31:36;7.65;;;1.27;;
72369;SDS011;60343;-32.030;115.880;2023-07-24T09:34:21;6.07;;;1.20;;
72369;SDS011;60343;-32.030;115.880;2023-07-24T09:36:56;6.57;;;1.40;;
72369;SDS011;60343;-32.030;115.880;2023-07-24T09:39:32;4.53;;;1.30;;
72369;SDS011;60343;-32.030;115.880;2023-07-24T09:42:07;5.85;;;1.30;;
72369;SDS011;60343;-32.030;115.880;2023-07-24T09:44:42;7.82;;;1.65;;
72369;SDS011;60343;-32.030;115.880;2023-07-24T09:47:18;6.28;;;1.58;;
72369;SDS011;60343;-32.030;115.880;2023-07-24T09:49:59;5.93;;;1.60;;
72369;SDS011;60343;-32.030;115.880;2023-07-24T09:52:36;7.57;;;1.70;;
72369;SDS011;60343;-32.030;115.880;2023-07-24T09:55:15;5.63;;;1.50;;
72369;SDS011;60343;-32.030;115.880;2023-07-24T09:57:56;7.53;;;1.77;;
72369;SDS011;60343;-32.030;115.880;2023-07-24T10:00:32;4.72;;;1.25;;
72369;SDS011;60343;-32.030;115.880;2023-07-24T10:03:07;6.35;;;1.50;;
72369;SDS011;60343;-32.030;115.880;2023-07-24T10:05:49;10.05;;;2.70;;
72369;SDS011;60343;-32.030;115.880;2023-07-24T10:08:26;8.55;;;2.30;;
72369;SDS011;60343;-32.030;115.880;2023-07-24T10:11:01;8.98;;;2.22;;
72369;SDS011;60343;-32.030;115.880;2023-07-24T10:13:37;7.22;;;1.90;;
72369;SDS011;60343;-32.030;115.880;2023-07-24T10:16:13;11.05;;;3.85;;
72369;SDS011;60343;-32.030;115.880;2023-07-24T10:18:51;14.68;;;5.20;;
72369;SDS011;60343;-32.030;115.880;2023-07-24T10:21:32;16.92;;;7.20;;
72369;SDS011;60343;-32.030;115.880;2023-07-24T10:24:07;14.98;;;6.38;;
72369;SDS011;60343;-32.030;115.880;2023-07-24T10:26:43;17.38;;;6.38;;
72369;SDS011;60343;-32.030;115.880;2023-07-24T10:29:24;12.10;;;4.85;;
72369;SDS011;60343;-32.030;115.880;2023-07-24T10:31:59;9.23;;;2.92;;
72369;SDS011;60343;-32.030;115.880;2023-07-24T10:34:41;8.07;;;2.33;;
72369;SDS011;60343;-32.030;115.880;2023-07-24T10:37:58;11.48;;;3.20;;
72369;SDS011;60343;-32.030;115.880;2023-07-24T10:40:35;8.45;;;2.72;;
72369;SDS011;60343;-32.030;115.880;2023-07-24T10:43:11;6.13;;;1.77;;
72369;SDS011;60343;-32.030;115.880;2023-07-24T10:45:52;6.22;;;2.00;;
72369;SDS011;60343;-32.030;115.880;2023-07-24T10:48:28;7.68;;;2.47;;
72369;SDS011;60343;-32.030;115.880;2023-07-24T10:51:06;10.63;;;2.75;;
72369;SDS011;60343;-32.030;115.880;2023-07-24T10:53:49;10.93;;;2.63;;
72369;SDS011;60343;-32.030;115.880;2023-07-24T10:56:24;8.75;;;3.00;;
72369;SDS011;60343;-32.030;115.880;2023-07-24T10:59:03;11.45;;;3.50;;
72369;SDS011;60343;-32.030;115.880;2023-07-24T11:01:40;9.02;;;3.53;;
72369;SDS011;60343;-32.030;115.880;2023-07-24T11:04:16;8.68;;;3.17;;
72369;SDS011;60343;-32.030;115.880;2023-07-24T11:06:53;8.77;;;3.30;;
72369;SDS011;60343;-32.030;115.880;2023-07-24T11:09:43;9.50;;;3.47;;
72369;SDS011;60343;-32.030;115.880;2023-07-24T11:12:20;9.98;;;2.88;;
72369;SDS011;60343;-32.030;115.880;2023-07-24T11:14:58;8.05;;;3.10;;
72369;SDS011;60343;-32.030;115.880;2023-07-24T11:17:36;10.20;;;3.40;;
72369;SDS011;60343;-32.030;115.880;2023-07-24T11:20:14;9.52;;;3.28;;
72369;SDS011;60343;-32.030;115.880;2023-07-24T11:22:49;10.65;;;3.70;;
72369;SDS011;60343;-32.030;115.880;2023-07-24T11:25:31;11.30;;;3.92;;
72369;SDS011;60343;-32.030;115.880;2023-07-24T11:28:06;12.70;;;4.03;;
72369;SDS011;60343;-32.030;115.880;2023-07-24T11:30:43;9.73;;;3.38;;
72369;SDS011;60343;-32.030;115.880;2023-07-24T11:33:20;10.98;;;3.55;;
72369;SDS011;60343;-32.030;115.880;2023-07-24T11:35:55;8.68;;;3.33;;
72369;SDS011;60343;-32.030;115.880;2023-07-24T11:38:31;11.50;;;4.00;;
72369;SDS011;60343;-32.030;115.880;2023-07-24T11:41:16;11.88;;;3.70;;
72369;SDS011;60343;-32.030;115.880;2023-07-24T11:46:29;15.27;;;3.92;;
72369;SDS011;60343;-32.030;115.880;2023-07-24T11:49:05;8.10;;;3.42;;
72369;SDS011;60343;-32.030;115.880;2023-07-24T11:51:40;9.15;;;3.35;;
72369;SDS011;60343;-32.030;115.880;2023-07-24T11:54:16;9.68;;;3.42;;
72369;SDS011;60343;-32.030;115.880;2023-07-24T11:56:57;10.30;;;3.63;;
72369;SDS011;60343;-32.030;115.880;2023-07-24T11:59:37;13.70;;;4.82;;
72369;SDS011;60343;-32.030;115.880;2023-07-24T12:02:13;13.18;;;4.50;;
72369;SDS011;60343;-32.030;115.880;2023-07-24T12:04:53;10.93;;;4.07;;
72369;SDS011;60343;-32.030;115.880;2023-07-24T12:07:31;11.65;;;3.90;;
72369;SDS011;60343;-32.030;115.880;2023-07-24T12:10:07;11.35;;;4.25;;
72369;SDS011;60343;-32.030;115.880;2023-07-24T12:12:49;16.17;;;4.13;;
72369;SDS011;60343;-32.030;115.880;2023-07-24T12:15:25;12.40;;;4.32;;
72369;SDS011;60343;-32.030;115.880;2023-07-24T12:18:01;10.07;;;3.70;;
72369;SDS011;60343;-32.030;115.880;2023-07-24T12:20:38;10.32;;;3.95;;
72369;SDS011;60343;-32.030;115.880;2023-07-24T12:23:14;12.38;;;4.00;;
72369;SDS011;60343;-32.030;115.880;2023-07-24T12:25:49;10.90;;;3.63;;
72369;SDS011;60343;-32.030;115.880;2023-07-24T12:28:31;11.95;;;4.28;;
72369;SDS011;60343;-32.030;115.880;2023-07-24T12:31:06;12.43;;;3.60;;
72369;SDS011;60343;-32.030;115.880;2023-07-24T12:33:41;11.88;;;4.07;;
72369;SDS011;60343;-32.030;115.880;2023-07-24T12:36:17;10.90;;;4.00;;
72369;SDS011;60343;-32.030;115.880;2023-07-24T12:38:52;12.55;;;3.65;;
72369;SDS011;60343;-32.030;115.880;2023-07-24T12:41:28;14.43;;;4.30;;
72369;SDS011;60343;-32.030;115.880;2023-07-24T12:44:09;9.25;;;3.17;;
72369;SDS011;60343;-32.030;115.880;2023-07-24T12:46:44;8.95;;;3.60;;
72369;SDS011;60343;-32.030;115.880;2023-07-24T12:49:20;9.13;;;3.30;;
72369;SDS011;60343;-32.030;115.880;2023-07-24T12:51:55;10.40;;;3.35;;
72369;SDS011;60343;-32.030;115.880;2023-07-24T12:54:31;10.57;;;3.15;;
72369;SDS011;60343;-32.030;115.880;2023-07-24T12:57:07;9.13;;;2.92;;
72369;SDS011;60343;-32.030;115.880;2023-07-24T12:59:48;11.30;;;3.40;;
72369;SDS011;60343;-32.030;115.880;2023-07-24T13:02:24;10.50;;;3.47;;
72369;SDS011;60343;-32.030;115.880;2023-07-24T13:04:59;13.45;;;3.70;;
72369;SDS011;60343;-32.030;115.880;2023-07-24T13:07:35;12.85;;;3.70;;
72369;SDS011;60343;-32.030;115.880;2023-07-24T13:10:15;12.65;;;3.40;;
72369;SDS011;60343;-32.030;115.880;2023-07-24T13:12:52;9.20;;;3.28;;
72369;SDS011;60343;-32.030;115.880;2023-07-24T13:15:33;8.95;;;2.92;;
72369;SDS011;60343;-32.030;115.880;2023-07-24T13:18:08;8.50;;;2.90;;
72369;SDS011;60343;-32.030;115.880;2023-07-24T13:20:46;10.52;;;3.40;;
72369;SDS011;60343;-32.030;115.880;2023-07-24T13:23:21;7.82;;;2.47;;
72369;SDS011;60343;-32.030;115.880;2023-07-24T13:25:57;7.72;;;2.90;;
72369;SDS011;60343;-32.030;115.880;2023-07-24T13:28:34;8.43;;;2.80;;
72369;SDS011;60343;-32.030;115.880;2023-07-24T13:31:19;10.30;;;2.95;;
72369;SDS011;60343;-32.030;115.880;2023-07-24T13:33:55;10.90;;;3.10;;
72369;SDS011;60343;-32.030;115.880;2023-07-24T13:36:31;8.32;;;2.90;;
72369;SDS011;60343;-32.030;115.880;2023-07-24T13:39:06;8.80;;;2.50;;
72369;SDS011;60343;-32.030;115.880;2023-07-24T13:41:43;8.98;;;2.58;;
72369;SDS011;60343;-32.030;115.880;2023-07-24T13:44:19;10.88;;;2.65;;
72369;SDS011;60343;-32.030;115.880;2023-07-24T13:47:00;9.77;;;2.53;;
72369;SDS011;60343;-32.030;115.880;2023-07-24T13:49:36;7.80;;;2.28;;
72369;SDS011;60343;-32.030;115.880;2023-07-24T13:52:11;8.52;;;2.38;;
72369;SDS011;60343;-32.030;115.880;2023-07-24T13:54:46;9.70;;;2.40;;
72369;SDS011;60343;-32.030;115.880;2023-07-24T13:57:22;9.30;;;2.25;;
72369;SDS011;60343;-32.030;115.880;2023-07-24T13:59:57;8.65;;;2.67;;
72369;SDS011;60343;-32.030;115.880;2023-07-24T14:02:39;9.65;;;2.70;;
72369;SDS011;60343;-32.030;115.880;2023-07-24T14:05:15;12.52;;;2.80;;
72369;SDS011;60343;-32.030;115.880;2023-07-24T14:07:51;11.93;;;2.75;;
72369;SDS011;60343;-32.030;115.880;2023-07-24T14:10:27;8.40;;;2.58;;
72369;SDS011;60343;-32.030;115.880;2023-07-24T14:13:02;7.55;;;2.38;;
72369;SDS011;60343;-32.030;115.880;2023-07-24T14:15:38;9.75;;;2.70;;
72369;SDS011;60343;-32.030;115.880;2023-07-24T14:18:20;8.63;;;2.72;;
72369;SDS011;60343;-32.030;115.880;2023-07-24T14:20:56;10.40;;;3.00;;
72369;SDS011;60343;-32.030;115.880;2023-07-24T14:23:31;7.97;;;2.72;;
72369;SDS011;60343;-32.030;115.880;2023-07-24T14:26:06;11.10;;;2.90;;
72369;SDS011;60343;-32.030;115.880;2023-07-24T14:28:42;15.02;;;3.58;;
72369;SDS011;60343;-32.030;115.880;2023-07-24T14:31:17;12.13;;;3.47;;
72369;SDS011;60343;-32.030;115.880;2023-07-24T14:33:58;10.73;;;2.90;;
72369;SDS011;60343;-32.030;115.880;2023-07-24T14:36:37;8.35;;;3.10;;
72369;SDS011;60343;-32.030;115.880;2023-07-24T14:39:12;8.48;;;2.83;;
72369;SDS011;60343;-32.030;115.880;2023-07-24T14:41:48;7.10;;;2.78;;
72369;SDS011;60343;-32.030;115.880;2023-07-24T14:44:23;6.35;;;2.55;;
72369;SDS011;60343;-32.030;115.880;2023-07-24T14:46:59;10.60;;;2.50;;
72369;SDS011;60343;-32.030;115.880;2023-07-24T14:49:40;11.57;;;2.97;;
72369;SDS011;60343;-32.030;115.880;2023-07-24T14:52:15;8.90;;;2.00;;
72369;SDS011;60343;-32.030;115.880;2023-07-24T14:54:51;8.65;;;2.90;;
72369;SDS011;60343;-32.030;115.880;2023-07-24T14:57:29;8.57;;;2.50;;
72369;SDS011;60343;-32.030;115.880;2023-07-24T15:00:06;9.43;;;2.20;;
72369;SDS011;60343;-32.030;115.880;2023-07-24T15:02:42;6.38;;;1.85;;
72369;SDS011;60343;-32.030;115.880;2023-07-24T15:05:24;6.53;;;1.92;;
72369;SDS011;60343;-32.030;115.880;2023-07-24T15:07:59;7.55;;;2.28;;
72369;SDS011;60343;-32.030;115.880;2023-07-24T15:10:34;8.38;;;2.10;;